Terminal Aerodrome Forecast
Issued by NWS Shreveport, LA

Home | Current Version | Previous Version | Text Only | Print | Product List | Glossary On
Versions: 1 2 3 4 5 6 7 8 9 10 11 12 13 14 15 16 17 18 19 20 21 22 23 24 25 26 27 28 29 30
000
FTUS44 KSHV 232001 AAB
TAFSHV
TAF AMD
KSHV 232001Z 2320/2418 01006KT P6SM SCT035 BKN200
     FM232200 32008KT P6SM VCTS BKN035CB BKN100
      TEMPO 2323/2403 VRB10G20KT 3SM -TSRA BR BKN020 OVC035CB
     FM240700 30006KT P6SM SCT015
     FM241500 31010G18KT P6SM SKC=

USA.gov is the U.S. government's official web portal to all federal, state and local government web resources and services.